Time;durP1;ratioP1;P1;durP2;ratioP2;P2;SDS_P1;SDS_P2;PMS_P1;PMS_P2;Temp;Humidity;BMP_temperature;BMP_pressure;BME280_temperature;BME280_humidity;BME280_pressure;Samples;Min_cycle;Max_cycle;Signal;HPM_P1;HPM_P2
2023/07/07 00:00:50;;;;;;;7.75;5.63;;;;;;;14.53;87.99;101846.31;4912053;29;20028;-58
2023/07/07 00:03:16;;;;;;;7.85;5.72;;;;;;;14.56;88.18;101848.13;4910960;29;20039;-58
2023/07/07 00:05:43;;;;;;;7.30;5.95;;;;;;;14.46;88.19;101849.63;4911193;29;20103;-58
2023/07/07 00:08:08;;;;;;;7.93;5.55;;;;;;;14.38;88.37;101846.84;4913868;29;20032;-57
2023/07/07 00:10:33;;;;;;;10.73;5.90;;;;;;;14.25;89.31;101852.59;4896959;29;20039;-58
2023/07/07 00:12:59;;;;;;;7.32;5.90;;;;;;;14.03;90.20;101854.72;4913541;29;20038;-58
2023/07/07 00:15:24;;;;;;;8.52;6.05;;;;;;;13.82;91.32;101852.41;4912191;29;20027;-58
2023/07/07 00:17:50;;;;;;;8.50;5.78;;;;;;;13.66;91.76;101853.72;4896403;29;20055;-59
2023/07/07 00:20:16;;;;;;;7.15;5.93;;;;;;;13.48;92.55;101853.22;4913291;29;20482;-58
2023/07/07 00:22:42;;;;;;;7.13;5.85;;;;;;;13.31;93.39;101858.84;4912411;29;20039;-58
2023/07/07 00:25:08;;;;;;;7.97;5.55;;;;;;;13.19;94.07;101850.63;4911707;29;20043;-57
2023/07/07 00:27:34;;;;;;;8.93;5.90;;;;;;;13.19;94.34;101848.91;4912985;29;20047;-57
2023/07/07 00:29:59;;;;;;;8.18;5.63;;;;;;;13.35;93.81;101847.66;4909903;29;20032;-58
2023/07/07 00:32:25;;;;;;;7.90;5.60;;;;;;;13.46;92.95;101847.94;4912937;29;20067;-58
2023/07/07 00:34:50;;;;;;;8.15;6.43;;;;;;;13.55;92.00;101849.94;4910339;29;20079;-57
2023/07/07 00:37:16;;;;;;;8.60;6.40;;;;;;;13.62;91.62;101846.63;4907943;29;20143;-58
2023/07/07 00:39:41;;;;;;;7.90;6.20;;;;;;;13.68;90.86;101849.41;4913360;29;20582;-58
2023/07/07 00:42:10;;;;;;;8.38;6.32;;;;;;;13.74;90.47;101852.22;4913610;29;20085;-58
2023/07/07 00:45:13;;;;;;;8.85;6.70;;;;;;;13.76;89.48;101852.25;4911156;29;20028;-57
2023/07/07 00:47:51;;;;;;;10.98;6.65;;;;;;;13.79;89.30;101852.34;4908959;29;20032;-58
2023/07/07 00:50:18;;;;;;;9.07;6.32;;;;;;;13.83;88.68;101856.81;4912864;29;20381;-58
2023/07/07 00:52:45;;;;;;;8.10;6.20;;;;;;;13.81;88.69;101849.75;4912397;29;20036;-58
2023/07/07 00:55:15;;;;;;;8.52;6.70;;;;;;;13.82;88.48;101851.53;4911391;29;20487;-58
2023/07/07 00:57:40;;;;;;;9.43;6.57;;;;;;;13.83;88.22;101851.56;4913591;29;20084;-58
2023/07/07 01:00:06;;;;;;;9.90;6.63;;;;;;;13.83;88.21;101854.19;4912429;29;20028;-58
2023/07/07 01:02:32;;;;;;;10.27;6.68;;;;;;;13.85;87.73;101851.63;4913201;29;20031;-58
2023/07/07 01:05:01;;;;;;;8.90;6.60;;;;;;;13.87;87.34;101850.78;4916687;29;20415;-58
2023/07/07 01:07:38;;;;;;;10.07;6.70;;;;;;;13.84;87.26;101860.31;4917302;29;20024;-57
2023/07/07 01:10:04;;;;;;;12.38;6.82;;;;;;;13.84;86.95;101855.06;4917445;29;20082;-58
2023/07/07 01:12:30;;;;;;;13.23;7.43;;;;;;;13.80;87.44;101861.06;4917532;29;20472;-58
2023/07/07 01:14:55;;;;;;;9.35;7.05;;;;;;;13.82;87.01;101859.41;4913769;29;20177;-58
2023/07/07 01:18:05;;;;;;;9.20;7.43;;;;;;;13.82;86.79;101865.50;4914017;29;20451;-57
2023/07/07 01:20:41;;;;;;;9.45;7.13;;;;;;;13.79;86.48;101867.16;4840245;29;20080;-58
2023/07/07 01:23:36;;;;;;;9.43;6.97;;;;;;;13.73;87.29;101858.28;4889497;29;20068;-58
2023/07/07 01:26:27;;;;;;;9.23;6.97;;;;;;;13.71;86.99;101859.09;4891352;29;20100;-58
2023/07/07 01:28:54;;;;;;;11.43;7.57;;;;;;;13.64;87.62;101854.53;4898155;29;20040;-58
2023/07/07 01:31:32;;;;;;;12.13;8.00;;;;;;;13.48;88.66;101855.84;4898191;29;20028;-58
2023/07/07 01:33:59;;;;;;;10.18;6.82;;;;;;;13.44;89.72;101859.22;4897452;29;20036;-58
2023/07/07 01:36:25;;;;;;;9.90;7.32;;;;;;;13.30;89.79;101859.69;4897552;29;20077;-57
2023/07/07 01:38:50;;;;;;;10.75;7.50;;;;;;;13.25;90.27;101849.91;4891054;29;20111;-58
2023/07/07 01:41:34;;;;;;;11.27;7.40;;;;;;;13.21;90.55;101846.34;4890827;29;20486;-58
2023/07/07 01:44:17;;;;;;;9.63;7.45;;;;;;;13.21;90.41;101848.97;4888914;29;20044;-58
2023/07/07 01:47:13;;;;;;;9.48;7.38;;;;;;;13.17;90.05;101850.59;4894294;29;20037;-58
2023/07/07 01:49:50;;;;;;;9.93;7.70;;;;;;;13.13;90.19;101848.72;4895095;29;20043;-58
2023/07/07 01:52:23;;;;;;;10.02;7.68;;;;;;;13.17;90.30;101854.94;4890786;29;20551;-58
2023/07/07 01:54:56;;;;;;;9.10;7.05;;;;;;;13.20;90.01;101855.91;4887868;29;20054;-58
2023/07/07 01:57:26;;;;;;;10.50;7.57;;;;;;;13.23;89.67;101850.75;4888786;29;20030;-57
2023/07/07 01:59:51;;;;;;;10.07;6.85;;;;;;;13.25;89.31;101847.31;4896859;29;20403;-58
2023/07/07 02:02:17;;;;;;;11.20;7.85;;;;;;;13.28;88.96;101853.53;4893093;29;20103;-58
2023/07/07 02:04:43;;;;;;;11.80;7.78;;;;;;;13.30;88.21;101846.59;4892817;29;20483;-57
2023/07/07 02:07:09;;;;;;;9.43;7.63;;;;;;;13.31;88.00;101848.38;4895822;29;20083;-58
2023/07/07 02:09:34;;;;;;;9.80;7.93;;;;;;;13.30;88.21;101853.56;4897192;29;20036;-58
2023/07/07 02:11:59;;;;;;;11.32;8.02;;;;;;;13.28;87.94;101847.38;4888285;29;20072;-58
2023/07/07 02:14:24;;;;;;;10.73;8.02;;;;;;;13.27;87.84;101849.13;4892803;29;20041;-58
2023/07/07 02:16:50;;;;;;;11.80;7.88;;;;;;;13.21;88.22;101846.34;4894804;29;20400;-58
2023/07/07 02:19:16;;;;;;;9.80;7.53;;;;;;;13.21;87.88;101844.59;4913626;29;20084;-57
2023/07/07 02:21:41;;;;;;;9.45;8.02;;;;;;;13.18;87.24;101847.13;4915226;29;20040;-58
2023/07/07 02:24:07;;;;;;;10.25;7.68;;;;;;;13.15;88.27;101846.16;4914280;29;20039;-57
2023/07/07 02:26:32;;;;;;;9.27;7.55;;;;;;;13.05;88.63;101843.28;4915011;29;20028;-58
2023/07/07 02:28:57;;;;;;;12.63;8.10;;;;;;;12.93;89.88;101845.50;4915508;29;20107;-58
2023/07/07 02:31:24;;;;;;;11.00;7.82;;;;;;;12.79;91.45;101841.59;4915577;29;20071;-58
2023/07/07 02:33:50;;;;;;;10.02;7.63;;;;;;;12.75;91.75;101844.97;4913922;29;20443;-57
2023/07/07 02:36:18;;;;;;;10.73;7.18;;;;;;;12.70;91.79;101834.34;4915025;29;20095;-58
2023/07/07 02:38:44;;;;;;;9.25;7.00;;;;;;;12.66;91.78;101849.06;4914291;29;20100;-58
2023/07/07 02:41:09;;;;;;;12.23;8.13;;;;;;;12.62;91.28;101847.19;4915772;29;20428;-58
2023/07/07 02:43:34;;;;;;;9.32;7.30;;;;;;;12.65;91.29;101849.91;4912841;29;20555;-57
2023/07/07 02:45:59;;;;;;;11.27;7.68;;;;;;;12.68;91.10;101839.53;4914107;29;20032;-58
2023/07/07 02:48:25;;;;;;;10.40;8.10;;;;;;;12.70;90.31;101843.09;4914799;29;20030;-58
2023/07/07 02:50:58;;;;;;;10.68;8.10;;;;;;;12.68;90.16;101850.00;4913653;29;20055;-58
2023/07/07 02:53:26;;;;;;;11.20;8.63;;;;;;;12.68;90.45;101851.72;4914536;29;20028;-58
2023/07/07 02:55:52;;;;;;;12.05;8.23;;;;;;;12.69;90.20;101853.50;4913834;29;20028;-58
2023/07/07 02:58:17;;;;;;;11.23;8.13;;;;;;;12.66;90.37;101850.81;4915543;29;20028;-58
2023/07/07 03:00:43;;;;;;;12.18;8.40;;;;;;;12.56;91.37;101854.84;4912844;29;20099;-58
2023/07/07 03:03:08;;;;;;;12.88;9.05;;;;;;;12.50;91.50;101866.00;4905124;29;20614;-58
2023/07/07 03:05:33;;;;;;;11.65;8.63;;;;;;;12.48;91.13;101862.47;4914954;29;20522;-58
2023/07/07 03:08:00;;;;;;;12.20;8.65;;;;;;;12.47;90.95;101865.00;4914268;29;20036;-58
2023/07/07 03:10:25;;;;;;;12.63;8.70;;;;;;;12.46;91.12;101868.47;4912708;29;20051;-58
2023/07/07 03:12:50;;;;;;;11.07;8.25;;;;;;;12.48;90.94;101872.00;4914078;29;20088;-58
2023/07/07 03:15:20;;;;;;;11.95;8.40;;;;;;;12.45;90.91;101866.69;4914477;29;20040;-58
2023/07/07 03:17:46;;;;;;;13.95;9.10;;;;;;;12.45;90.85;101870.19;4908835;29;20058;-58
2023/07/07 03:20:11;;;;;;;13.30;9.23;;;;;;;12.44;91.21;101864.91;4913741;29;20114;-58
2023/07/07 03:22:37;;;;;;;14.13;10.10;;;;;;;12.41;91.87;101870.94;4911135;29;20032;-58
2023/07/07 03:25:02;;;;;;;12.80;9.02;;;;;;;12.42;91.81;101869.19;4913649;29;20040;-58
2023/07/07 03:27:28;;;;;;;11.75;9.60;;;;;;;12.38;92.21;101869.94;4914036;29;20043;-58
2023/07/07 03:29:53;;;;;;;9.43;8.02;;;;;;;12.39;91.75;101874.34;4905576;29;20463;-61
2023/07/07 03:32:18;;;;;;;10.88;8.43;;;;;;;12.40;91.44;101869.16;4913414;29;20043;-61
2023/07/07 03:34:44;;;;;;;13.13;9.07;;;;;;;12.42;91.10;101871.81;4912893;29;20107;-61
2023/07/07 03:37:10;;;;;;;11.98;9.18;;;;;;;12.38;91.05;101869.94;4907232;29;20077;-61
2023/07/07 03:39:35;;;;;;;12.07;8.95;;;;;;;12.28;92.49;101879.19;4912923;29;20083;-61
2023/07/07 03:42:01;;;;;;;12.13;9.43;;;;;;;12.11;93.73;101866.47;4913024;29;20482;-61
2023/07/07 03:44:26;;;;;;;11.30;9.10;;;;;;;12.02;94.59;101871.38;4912091;29;20032;-61
2023/07/07 03:46:51;;;;;;;10.20;8.55;;;;;;;12.02;94.91;101871.38;4911541;29;20036;-61
2023/07/07 03:49:18;;;;;;;10.70;8.95;;;;;;;12.03;94.17;101873.13;4911477;29;20064;-61
2023/07/07 03:51:43;;;;;;;10.90;9.50;;;;;;;11.98;94.37;101875.59;4910154;29;20035;-60
2023/07/07 03:54:08;;;;;;;10.98;8.77;;;;;;;11.89;94.40;101871.75;4911271;29;20395;-61
2023/07/07 03:56:34;;;;;;;11.45;8.40;;;;;;;11.85;94.97;101878.59;4914572;29;20024;-61
2023/07/07 03:58:59;;;;;;;10.68;8.65;;;;;;;11.81;95.26;101868.88;4914650;29;20028;-61
2023/07/07 04:01:24;;;;;;;11.95;8.63;;;;;;;11.80;95.54;101869.69;4914467;29;20487;-61
2023/07/07 04:03:50;;;;;;;9.82;7.97;;;;;;;11.77;96.27;101869.59;4907649;29;20040;-61
2023/07/07 04:06:16;;;;;;;14.07;8.82;;;;;;;11.75;96.67;101872.16;4911833;29;20031;-61
2023/07/07 04:08:42;;;;;;;12.85;9.43;;;;;;;11.79;97.17;101873.16;4913560;29;20042;-61
2023/07/07 04:11:12;;;;;;;11.52;9.00;;;;;;;11.81;96.21;101874.09;4913244;29;20032;-61
2023/07/07 04:13:39;;;;;;;12.75;9.25;;;;;;;11.87;96.34;101870.81;4913203;29;20028;-61
2023/07/07 04:16:07;;;;;;;11.35;9.20;;;;;;;11.95;95.38;101878.13;4913894;29;20123;-61
2023/07/07 04:18:33;;;;;;;12.32;8.73;;;;;;;11.98;95.28;101872.13;4913841;29;20040;-61
2023/07/07 04:21:01;;;;;;;11.90;9.52;;;;;;;12.00;95.04;101884.38;4913207;29;20124;-60
2023/07/07 04:23:27;;;;;;;12.43;9.82;;;;;;;12.03;94.56;101887.94;4908212;29;20035;-61
2023/07/07 04:25:53;;;;;;;12.50;9.70;;;;;;;12.05;95.43;101886.25;4913330;29;20554;-61
2023/07/07 04:28:18;;;;;;;12.68;9.50;;;;;;;12.05;95.21;101894.09;4912904;29;20165;-61
2023/07/07 04:30:44;;;;;;;12.70;9.70;;;;;;;12.03;95.59;101887.94;4912806;29;20125;-61
2023/07/07 04:33:09;;;;;;;10.95;8.45;;;;;;;12.03;95.38;101893.16;4906506;29;20032;-61
2023/07/07 04:35:36;;;;;;;11.35;8.90;;;;;;;12.03;96.20;101894.03;4913141;29;20107;-61
2023/07/07 04:38:01;;;;;;;12.07;9.07;;;;;;;12.02;96.91;101899.22;4914927;29;20499;-61
2023/07/07 04:40:29;;;;;;;12.40;9.30;;;;;;;12.03;97.21;101888.81;4917239;29;20032;-61
2023/07/07 04:42:54;;;;;;;12.57;9.68;;;;;;;12.01;98.00;101887.88;4916738;29;20024;-61
2023/07/07 04:45:19;;;;;;;12.90;9.25;;;;;;;12.04;97.70;101885.38;4899685;29;20040;-61
2023/07/07 04:47:45;;;;;;;12.85;10.02;;;;;;;12.09;98.80;101886.41;4914964;29;20483;-61
2023/07/07 04:50:11;;;;;;;11.13;8.85;;;;;;;12.15;97.82;101885.72;4916440;29;20087;-61
2023/07/07 04:52:38;;;;;;;12.05;8.65;;;;;;;12.20;97.72;101886.78;4915129;29;20028;-61
2023/07/07 04:55:04;;;;;;;12.55;9.55;;;;;;;12.27;97.67;101885.28;4916471;29;20052;-61
2023/07/07 04:57:29;;;;;;;12.90;9.05;;;;;;;12.29;96.95;101883.59;4916965;29;20435;-61
2023/07/07 04:59:55;;;;;;;11.43;7.90;;;;;;;12.29;96.25;101879.25;4916790;29;20107;-61
2023/07/07 05:02:22;;;;;;;10.57;7.93;;;;;;;12.31;96.77;101885.44;4917516;29;20020;-61
2023/07/07 05:04:48;;;;;;;12.55;8.93;;;;;;;12.34;96.73;101885.53;4916266;29;20032;-61
2023/07/07 05:07:13;;;;;;;12.60;9.05;;;;;;;12.39;97.49;101882.19;4900682;29;20039;-61
2023/07/07 05:09:39;;;;;;;12.32;8.40;;;;;;;12.42;97.30;101882.28;4917513;29;20483;-61
2023/07/07 05:12:05;;;;;;;11.23;8.80;;;;;;;12.43;97.14;101874.47;4911916;29;20527;-61
2023/07/07 05:14:30;;;;;;;10.50;7.93;;;;;;;12.46;96.71;101879.81;4916445;29;20032;-61
2023/07/07 05:16:56;;;;;;;10.90;8.10;;;;;;;12.52;96.23;101889.56;4917416;29;20060;-61
2023/07/07 05:19:21;;;;;;;13.95;8.70;;;;;;;12.56;97.51;101891.44;4917284;29;20083;-61
2023/07/07 05:21:47;;;;;;;11.88;8.50;;;;;;;12.60;96.93;101887.19;4917411;29;20053;-61
2023/07/07 05:24:12;;;;;;;11.52;8.13;;;;;;;12.64;97.41;101892.59;4898831;29;20128;-61
2023/07/07 05:26:37;;;;;;;11.68;8.48;;;;;;;12.70;97.60;101889.25;4911409;29;20039;-61
2023/07/07 05:29:05;;;;;;;11.18;8.27;;;;;;;12.74;96.44;101882.41;4914891;29;20497;-59
2023/07/07 05:31:31;;;;;;;10.85;8.15;;;;;;;12.78;96.90;101890.41;4917562;29;20035;-58
2023/07/07 05:33:57;;;;;;;9.52;7.40;;;;;;;12.82;96.02;101889.66;4916046;29;20032;-58
2023/07/07 05:36:22;;;;;;;11.23;7.75;;;;;;;12.87;96.60;101890.72;4915312;29;20032;-58
2023/07/07 05:39:13;;;;;;;11.07;8.75;;;;;;;12.95;97.31;101898.78;4915121;29;20309;-58
2023/07/07 05:45:19;;;;;;;10.60;7.20;;;;;;;13.07;95.57;101884.31;4956033;23;20067;-96
2023/07/07 05:48:01;;;;;;;12.55;8.23;;;;;;;13.14;96.15;101896.72;4917132;29;20029;-96
2023/07/07 05:50:33;;;;;;;12.95;8.20;;;;;;;13.21;96.35;101893.44;4887183;29;20028;-96
2023/07/07 05:53:02;;;;;;;11.88;8.75;;;;;;;13.32;98.30;101897.25;4886746;29;20076;-96
2023/07/07 05:55:46;;;;;;;;;;;;;;;13.44;96.18;101895.88;4910641;29;20025;-96
2023/07/07 05:58:21;;;;;;;14.02;9.02;;;;;;;13.55;97.64;101894.44;4899977;29;19983;-96
2023/07/07 06:00:49;;;;;;;11.88;8.70;;;;;;;13.66;97.21;101893.03;4901898;29;20478;-96
2023/07/07 06:03:39;;;;;;;11.00;7.55;;;;;;;13.77;97.07;101892.44;4903436;29;20039;-96
2023/07/07 06:06:29;;;;;;;;;;;;;;;;;;;;;
2023/07/07 06:08:55;;;;;;;12.35;9.40;;;;;;;14.02;96.35;101897.47;4895306;29;20062;-96
2023/07/07 06:11:24;;;;;;;13.05;8.90;;;;;;;14.13;96.22;101889.00;4900696;29;20542;-96
2023/07/07 06:13:52;;;;;;;13.75;9.73;;;;;;;14.27;96.74;101888.50;4903160;29;20063;-96
2023/07/07 06:16:20;;;;;;;13.88;8.45;;;;;;;14.46;94.33;101890.72;4897609;29;20029;-96
2023/07/07 06:18:46;;;;;;;11.45;7.78;;;;;;;14.63;92.80;101891.13;4899236;29;20068;-96
2023/07/07 06:21:13;;;;;;;12.63;8.23;;;;;;;14.81;92.90;101896.81;4889141;29;20032;-96
2023/07/07 06:23:42;;;;;;;11.82;8.27;;;;;;;14.95;92.47;101889.28;4896670;29;20092;-96
2023/07/07 06:26:07;;;;;;;13.10;8.03;;;;;;;15.08;92.76;101886.06;4889155;29;20032;-96
2023/07/07 06:28:33;;;;;;;11.05;7.45;;;;;;;15.25;91.48;101893.38;4899467;29;20512;-96
2023/07/07 06:31:05;;;;;;;10.27;7.50;;;;;;;15.39;91.51;101896.31;4886940;29;20467;-96
2023/07/07 06:33:42;;;;;;;10.98;7.25;;;;;;;15.55;91.74;101897.50;4899171;29;20028;-96
2023/07/07 06:36:28;;;;;;;9.40;6.95;;;;;;;15.74;90.86;101889.16;4899289;29;20406;-96
2023/07/07 06:38:56;;;;;;;11.80;7.75;;;;;;;15.96;91.47;101897.44;4904848;29;20025;-96
2023/07/07 06:41:24;;;;;;;10.25;6.45;;;;;;;16.11;89.85;101908.25;4909099;29;20020;-96
2023/07/07 06:44:10;;;;;;;11.30;7.20;;;;;;;16.25;88.10;101897.06;4901295;29;20036;-96
2023/07/07 06:46:44;;;;;;;10.50;6.78;;;;;;;16.42;87.71;101898.25;4897054;29;20455;-96
2023/07/07 06:49:10;;;;;;;11.88;7.63;;;;;;;16.58;87.68;101901.13;4887906;29;20057;-96
2023/07/07 06:51:35;;;;;;;10.52;6.78;;;;;;;16.74;87.77;101900.50;4897613;29;20379;-96
2023/07/07 06:54:03;;;;;;;10.00;6.30;;;;;;;16.93;86.70;101903.44;4878417;29;20033;-95
2023/07/07 06:56:29;;;;;;;10.73;6.75;;;;;;;17.10;86.99;101904.53;4890740;29;20016;-96
2023/07/07 06:59:00;;;;;;;9.68;5.53;;;;;;;17.26;84.25;101905.63;4888711;29;20439;-96
2023/07/07 07:01:28;;;;;;;12.68;5.72;;;;;;;17.36;79.46;101904.00;4896971;29;20534;-96
2023/07/07 07:03:53;;;;;;;9.52;5.55;;;;;;;17.51;83.15;101904.22;4897977;29;20505;-96
2023/07/07 07:06:18;;;;;;;8.70;5.60;;;;;;;17.69;82.39;101918.47;4887383;29;20021;-96
2023/07/07 07:08:44;;;;;;;9.38;5.57;;;;;;;17.86;82.42;101911.63;4891475;29;20028;-96
2023/07/07 07:11:09;;;;;;;11.25;5.25;;;;;;;18.03;80.82;101909.19;4891492;29;20024;-96
2023/07/07 07:13:35;;;;;;;8.63;4.90;;;;;;;18.16;78.33;101914.56;4898994;29;20020;-96
2023/07/07 07:16:06;;;;;;;8.18;4.88;;;;;;;18.24;79.44;101912.91;4896777;29;20120;-96
2023/07/07 07:18:32;;;;;;;7.45;4.30;;;;;;;18.32;80.25;101905.94;4896795;29;20032;-96
2023/07/07 07:21:08;;;;;;;8.05;5.28;;;;;;;18.53;78.07;101907.84;4891448;29;20060;-96
2023/07/07 07:23:33;;;;;;;8.65;4.68;;;;;;;18.68;77.63;101911.47;4916701;29;20115;-96
2023/07/07 07:26:04;;;;;;;9.50;5.25;;;;;;;18.83;78.28;101911.59;4892610;29;20482;-96
2023/07/07 07:28:35;;;;;;;9.85;5.20;;;;;;;18.97;76.61;101916.09;4901610;29;20363;-96
2023/07/07 07:31:08;;;;;;;8.27;4.90;;;;;;;19.09;76.89;101916.19;4896215;29;20009;-96
2023/07/07 07:33:36;;;;;;;6.28;4.10;;;;;;;19.15;73.55;101916.22;4897825;29;20032;-96
2023/07/07 07:36:06;;;;;;;8.23;5.03;;;;;;;19.39;79.61;101918.09;4901778;29;20076;-96
2023/07/07 07:38:32;;;;;;;9.23;4.65;;;;;;;19.46;74.18;101914.59;4907494;29;20036;-96
2023/07/07 07:40:58;;;;;;;8.90;4.65;;;;;;;19.58;74.26;101915.50;4900294;29;20112;-96
2023/07/07 07:43:32;;;;;;;8.07;4.50;;;;;;;19.78;71.44;101923.50;4904290;29;20035;-96
2023/07/07 07:46:02;;;;;;;7.13;4.22;;;;;;;19.92;67.40;101926.22;4899599;29;20141;-96
2023/07/07 07:48:30;;;;;;;7.43;4.20;;;;;;;20.03;66.29;101923.59;4908734;29;20029;-96
2023/07/07 07:51:11;;;;;;;;;;;;;;;;;;;;;
2023/07/07 07:53:47;;;;;;;7.88;4.40;;;;;;;20.25;65.97;101922.75;4903267;29;20600;-96
2023/07/07 07:56:15;;;;;;;8.88;4.38;;;;;;;20.38;65.33;101914.78;4899241;29;20177;-96
2023/07/07 07:58:43;;;;;;;8.45;3.97;;;;;;;20.58;69.10;101923.63;4901909;29;20032;-96
2023/07/07 08:01:09;;;;;;;8.10;3.90;;;;;;;20.69;64.13;101912.19;4893196;29;20025;-96
2023/07/07 08:03:43;;;;;;;8.70;3.80;;;;;;;20.84;67.21;101925.38;4900688;29;20097;-96
2023/07/07 08:06:08;;;;;;;7.88;3.65;;;;;;;21.01;67.69;101922.69;4892956;29;20036;-96
2023/07/07 08:08:34;;;;;;;8.93;4.03;;;;;;;21.21;66.26;101922.63;4897235;29;20028;-96
2023/07/07 08:11:19;;;;;;;8.05;3.80;;;;;;;21.44;66.39;101916.38;4900436;29;20029;-96
2023/07/07 08:14:04;;;;;;;14.30;4.50;;;;;;;21.62;70.63;101921.59;4909036;29;20040;-96
2023/07/07 08:17:08;;;;;;;;;;;;;;;;;;;;;
2023/07/07 08:25:03;;;;;;;5.63;3.50;;;;;;;22.10;63.76;101928.41;5352649;23;20068;-96
2023/07/07 08:27:43;;;;;;;7.15;3.45;;;;;;;22.16;58.11;101923.94;4884231;29;20037;-95
2023/07/07 08:30:09;;;;;;;8.00;3.85;;;;;;;22.27;61.80;101921.19;4872030;29;20048;-95
2023/07/07 08:40:24;;;;;;;4.57;2.90;;;;;;;22.88;57.84;101925.09;4913590;29;20060;-95
2023/07/07 08:42:52;;;;;;;6.13;3.42;;;;;;;22.92;56.76;101918.84;4893567;29;20040;-96
2023/07/07 08:45:22;;;;;;;6.43;3.10;;;;;;;23.07;56.59;101923.13;4914044;29;20032;-96
2023/07/07 08:47:54;;;;;;;6.38;3.45;;;;;;;23.13;57.73;101914.22;4896539;29;20094;-96
2023/07/07 08:50:26;;;;;;;6.05;3.35;;;;;;;23.28;54.10;101929.13;4897645;29;20024;-96
2023/07/07 08:53:15;;;;;;;6.57;3.05;;;;;;;23.50;57.52;101923.53;4896456;29;20029;-95
2023/07/07 08:56:14;;;;;;;5.90;2.92;;;;;;;23.67;52.02;101918.84;4881204;29;20437;-96
2023/07/07 08:59:17;;;;;;;5.22;3.17;;;;;;;23.87;53.15;101925.69;4904498;29;20135;-95
2023/07/07 09:01:58;;;;;;;8.02;3.00;;;;;;;24.01;53.93;101926.38;4899254;29;20114;-96
2023/07/07 09:04:26;;;;;;;5.65;3.03;;;;;;;24.02;53.50;101922.81;4893873;29;20111;-96
2023/07/07 09:07:03;;;;;;;7.32;3.03;;;;;;;24.16;52.77;101919.03;4889799;29;20486;-95
2023/07/07 09:09:53;;;;;;;5.72;2.90;;;;;;;24.30;49.99;101915.28;4898618;29;20047;-96
2023/07/07 09:12:24;;;;;;;6.85;3.38;;;;;;;24.29;49.51;101917.97;4903503;29;20032;-96
2023/07/07 09:15:21;;;;;;;5.10;3.15;;;;;;;24.41;50.74;101925.72;4902726;29;20043;-96
2023/07/07 09:18:05;;;;;;;4.68;2.92;;;;;;;24.56;51.18;101916.59;4902884;29;20036;-96
2023/07/07 09:20:42;;;;;;;5.15;2.90;;;;;;;24.65;47.90;101912.91;4903965;29;20108;-95
2023/07/07 09:24:11;;;;;;;4.18;2.50;;;;;;;24.76;51.02;101910.94;4906858;29;20064;-96
2023/07/07 09:26:45;;;;;;;5.13;2.70;;;;;;;24.86;45.88;101908.97;4898873;29;20081;-96
2023/07/07 09:29:30;;;;;;;5.20;2.70;;;;;;;24.97;48.57;101912.31;4904391;29;20035;-95
2023/07/07 09:32:01;;;;;;;6.05;2.80;;;;;;;25.02;44.83;101908.69;4902913;29;20024;-96
2023/07/07 09:34:26;;;;;;;4.43;2.55;;;;;;;25.09;47.14;101910.31;4902853;29;20031;-95
2023/07/07 09:37:21;;;;;;;6.28;2.75;;;;;;;25.28;47.37;101908.16;4904554;29;20032;-95
2023/07/07 09:47:05;;;;;;;;;;;;;;;;;;;;;
2023/07/07 09:50:22;;;;;;;4.78;3.08;;;;;;;25.82;43.02;101899.88;4918944;29;20046;-96
2023/07/07 10:00:35;;;;;;;5.20;2.90;;;;;;;25.82;44.96;101897.19;4884327;29;20128;-96
2023/07/07 10:03:48;;;;;;;;;;;;;;;;;;;;;
2023/07/07 10:13:00;;;;;;;;;;;;;;;;;;;;;
2023/07/07 11:19:59;;;;;;;5.50;3.20;;;;;;;28.20;38.50;101850.34;4925868;29;20107;-96
2023/07/07 11:23:12;;;;;;;4.05;2.70;;;;;;;28.25;36.56;101844.81;4888664;29;20048;-96
2023/07/07 11:26:13;;;;;;;6.10;3.00;;;;;;;28.27;38.14;101853.66;4875199;29;20025;-96
2023/07/07 11:29:18;;;;;;;5.60;3.40;;;;;;;28.36;37.22;101852.47;4872694;29;20058;-96
2023/07/07 11:32:39;;;;;;;;;;;;;;;;;;;;;
2023/07/07 11:35:34;;;;;;;5.40;2.95;;;;;;;28.85;37.32;101848.06;4888254;29;20108;-96
2023/07/07 11:38:30;;;;;;;;;;;;;;;;;;;;;
2023/07/07 11:41:54;;;;;;;4.53;3.05;;;;;;;29.08;36.67;101839.16;4878078;29;20531;-96
2023/07/07 11:44:41;;;;;;;5.90;3.03;;;;;;;29.10;33.49;101839.09;4885916;29;20041;-96
2023/07/07 11:47:55;;;;;;;5.38;3.22;;;;;;;29.10;35.87;101837.25;4889794;29;20029;-96
2023/07/07 11:51:29;;;;;;;4.95;2.88;;;;;;;28.92;36.77;101837.97;4893080;29;20045;-96
2023/07/07 11:57:37;;;;;;;6.13;3.08;;;;;;;29.02;35.24;101838.50;4814263;29;20042;-96
2023/07/07 12:00:08;;;;;;;5.20;2.88;;;;;;;28.95;31.64;101835.16;5096598;23;20045;-95
2023/07/07 12:02:52;;;;;;;4.30;2.92;;;;;;;28.99;35.58;101834.13;5117008;23;20187;-95
2023/07/07 12:05:34;;;;;;;4.38;2.80;;;;;;;29.33;36.05;101830.16;4893349;29;20048;-96
2023/07/07 12:08:15;;;;;;;4.32;2.75;;;;;;;29.42;34.06;101826.25;4907150;29;20044;-96
2023/07/07 12:10:55;;;;;;;5.85;3.10;;;;;;;29.61;33.26;101819.16;4909148;29;20032;-95
2023/07/07 12:13:28;;;;;;;6.22;3.10;;;;;;;29.59;35.60;101820.16;4885527;29;20043;-94
2023/07/07 12:16:21;;;;;;;4.57;2.97;;;;;;;29.73;30.75;101822.28;4895700;29;20446;-96
2023/07/07 12:19:00;;;;;;;5.00;2.78;;;;;;;29.57;31.29;101817.53;4917812;29;20064;-96
2023/07/07 12:21:31;;;;;;;5.03;3.00;;;;;;;29.24;33.73;101817.97;4899342;29;20107;-96
2023/07/07 12:24:15;;;;;;;5.38;2.83;;;;;;;29.51;32.70;101819.63;4886872;29;20627;-95
2023/07/07 12:26:50;;;;;;;6.63;3.38;;;;;;;29.50;29.34;101805.28;4887755;29;20041;-95
2023/07/07 12:29:16;;;;;;;4.88;3.10;;;;;;;29.54;32.49;101808.75;4885839;29;20040;-94
2023/07/07 12:31:43;;;;;;;4.35;2.92;;;;;;;29.71;31.08;101805.38;4891963;29;20029;-95
2023/07/07 12:34:41;;;;;;;4.63;2.70;;;;;;;29.83;30.40;101810.25;4886727;29;20076;-95
2023/07/07 12:37:16;;;;;;;5.68;3.10;;;;;;;30.03;34.08;101805.84;4893051;29;20067;-96
2023/07/07 12:39:59;;;;;;;5.45;2.92;;;;;;;30.15;31.29;101799.94;4884723;29;20029;-95
2023/07/07 12:42:31;;;;;;;5.20;2.85;;;;;;;30.00;29.84;101807.72;4898092;29;20037;-96
2023/07/07 12:45:28;;;;;;;4.30;2.75;;;;;;;29.99;28.92;101810.47;4881755;29;20467;-95
2023/07/07 12:47:59;;;;;;;5.05;3.10;;;;;;;29.74;29.84;101807.94;4882285;29;20033;-96
2023/07/07 12:50:36;;;;;;;4.18;2.75;;;;;;;29.64;33.29;101799.38;4881766;29;20025;-96
2023/07/07 12:53:10;;;;;;;5.13;2.92;;;;;;;29.83;33.46;101795.00;4881314;29;20028;-95
2023/07/07 12:56:00;;;;;;;3.58;2.75;;;;;;;30.12;30.31;101792.00;4884051;29;20024;-96
2023/07/07 12:58:36;;;;;;;5.38;2.75;;;;;;;29.91;30.21;101791.09;4895653;29;20031;-95
2023/07/07 13:01:15;;;;;;;4.63;3.13;;;;;;;29.52;32.28;101795.38;4884481;29;20483;-95
2023/07/07 13:04:01;;;;;;;5.63;3.03;;;;;;;29.48;31.38;101785.69;4885303;29;20048;-95
2023/07/07 13:06:51;;;;;;;4.10;2.80;;;;;;;29.49;29.36;101788.31;4886438;29;20363;-95
2023/07/07 13:09:23;;;;;;;5.47;3.00;;;;;;;29.44;31.51;101782.25;4886480;29;20115;-96
2023/07/07 13:11:53;;;;;;;4.53;2.78;;;;;;;29.62;34.15;101774.41;4889498;29;20056;-96
2023/07/07 13:14:31;;;;;;;5.03;3.10;;;;;;;29.59;30.66;101772.72;4886293;29;20037;-96
2023/07/07 13:17:01;;;;;;;5.07;3.20;;;;;;;29.79;30.16;101773.66;4886747;29;20565;-96
2023/07/07 13:19:27;;;;;;;6.85;3.53;;;;;;;29.64;29.60;101777.88;4885348;29;20098;-95
2023/07/07 13:21:56;;;;;;;5.95;3.38;;;;;;;29.67;29.92;101775.06;4885370;29;21068;-95
2023/07/07 13:24:43;;;;;;;4.63;3.13;;;;;;;29.67;29.93;101770.56;4885636;29;20040;-96
2023/07/07 13:27:30;;;;;;;5.78;2.97;;;;;;;30.14;32.87;101768.59;4902000;29;20036;-96
2023/07/07 13:30:16;;;;;;;4.45;2.92;;;;;;;30.49;30.24;101769.75;4896656;29;20065;-96
2023/07/07 13:32:45;;;;;;;4.45;3.00;;;;;;;30.43;28.29;101761.06;4893384;29;20028;-96
2023/07/07 13:35:13;;;;;;;5.10;3.05;;;;;;;30.56;30.04;101766.78;4889434;29;20434;-96
2023/07/07 13:37:38;;;;;;;5.38;3.33;;;;;;;30.59;29.72;101759.44;4892594;29;20272;-96
2023/07/07 13:40:13;;;;;;;6.10;3.03;;;;;;;30.78;30.70;101763.94;4896088;29;20167;-96
2023/07/07 13:42:46;;;;;;;4.65;3.35;;;;;;;30.80;29.81;101762.94;4883056;29;20100;-96
2023/07/07 13:45:16;;;;;;;4.97;2.92;;;;;;;30.86;30.05;101751.91;4884469;29;20029;-96